SWA3176 KMCO-TNCM
Flight info
| Callsign | SWA3176 |
|---|---|
| Flight time | N/A |
| Altitude | 39000 |
| Route | DDANY3 JIPOD DCT VENDS Y185 COUKY DCT FIPEK Y355 SLUGO |
| Aircraft | B737/M-SADE2E3GIJ4RWZ/LB1D1 |
Departure
| Time | N/A |
|---|---|
| Airport | Orlando International Airport (KMCO) |
Arrival
| Time | 2026-05-03 20:47 |
|---|---|
| Airport | Princess Juliana International Airport (TNCM) |
| Time | Latitude | Longitude | Altitude | Speed | Heading |
|---|---|---|---|---|---|
| 2026-05-03 20:15 | 19.57849 | -65.97450 | 39058 ft | 496 kts | 117° |
| 2026-05-03 20:15 | 19.54583 | -65.90995 | 39051 ft | 496 kts | 117° |
| 2026-05-03 20:16 | 19.51317 | -65.84545 | 39051 ft | 496 kts | 117° |
| 2026-05-03 20:16 | 19.48047 | -65.78096 | 39054 ft | 496 kts | 117° |
| 2026-05-03 20:17 | 19.44778 | -65.71655 | 39053 ft | 496 kts | 117° |
| 2026-05-03 20:17 | 19.41526 | -65.65255 | 39053 ft | 496 kts | 117° |
| 2026-05-03 20:18 | 19.38256 | -65.58825 | 39052 ft | 495 kts | 117° |
| 2026-05-03 20:18 | 19.34984 | -65.52399 | 39052 ft | 495 kts | 117° |
| 2026-05-03 20:19 | 19.31715 | -65.45984 | 39053 ft | 495 kts | 117° |
| 2026-05-03 20:19 | 19.28439 | -65.39567 | 39052 ft | 495 kts | 117° |
| 2026-05-03 20:20 | 19.25191 | -65.33215 | 39041 ft | 489 kts | 117° |
| 2026-05-03 20:20 | 19.21980 | -65.26941 | 39045 ft | 481 kts | 117° |
| 2026-05-03 20:21 | 19.18796 | -65.20720 | 38809 ft | 481 kts | 117° |
| 2026-05-03 20:21 | 19.17211 | -65.17626 | 38378 ft | 476 kts | 117° |
| 2026-05-03 20:21 | 19.15638 | -65.14557 | 37922 ft | 471 kts | 117° |
| 2026-05-03 20:21 | 19.14085 | -65.11529 | 37470 ft | 465 kts | 117° |
| 2026-05-03 20:22 | 19.12550 | -65.08539 | 37020 ft | 460 kts | 117° |
| 2026-05-03 20:22 | 19.11028 | -65.05574 | 36588 ft | 456 kts | 117° |
| 2026-05-03 20:22 | 19.09523 | -65.02643 | 36154 ft | 451 kts | 117° |
| 2026-05-03 20:22 | 19.08032 | -64.99742 | 35717 ft | 447 kts | 118° |
| 2026-05-03 20:23 | 19.06553 | -64.96865 | 35273 ft | 444 kts | 118° |
| 2026-05-03 20:23 | 19.05086 | -64.94011 | 34834 ft | 440 kts | 118° |
| 2026-05-03 20:23 | 19.03645 | -64.91212 | 34411 ft | 437 kts | 118° |
| 2026-05-03 20:23 | 19.02195 | -64.88394 | 33953 ft | 435 kts | 118° |
| 2026-05-03 20:24 | 19.00751 | -64.85592 | 33462 ft | 432 kts | 118° |
| 2026-05-03 20:24 | 18.99318 | -64.82810 | 33006 ft | 428 kts | 118° |
| 2026-05-03 20:24 | 18.97898 | -64.80056 | 32571 ft | 425 kts | 118° |
| 2026-05-03 20:24 | 18.96491 | -64.77327 | 32153 ft | 421 kts | 118° |
| 2026-05-03 20:25 | 18.95098 | -64.74623 | 31726 ft | 418 kts | 118° |
| 2026-05-03 20:25 | 18.93711 | -64.71936 | 31315 ft | 414 kts | 118° |
| 2026-05-03 20:25 | 18.92354 | -64.69307 | 30923 ft | 411 kts | 118° |
| 2026-05-03 20:25 | 18.90986 | -64.66656 | 30509 ft | 408 kts | 118° |
| 2026-05-03 20:26 | 18.89632 | -64.64037 | 30102 ft | 405 kts | 118° |
| 2026-05-03 20:26 | 18.88287 | -64.61439 | 29647 ft | 402 kts | 118° |
| 2026-05-03 20:26 | 18.86950 | -64.58858 | 29195 ft | 399 kts | 118° |
| 2026-05-03 20:26 | 18.85623 | -64.56298 | 28748 ft | 396 kts | 118° |
| 2026-05-03 20:27 | 18.84306 | -64.53756 | 28315 ft | 393 kts | 118° |
| 2026-05-03 20:27 | 18.83011 | -64.51258 | 27873 ft | 391 kts | 118° |
| 2026-05-03 20:27 | 18.81709 | -64.48746 | 27441 ft | 389 kts | 118° |
| 2026-05-03 20:27 | 18.80413 | -64.46246 | 27008 ft | 387 kts | 117° |
| 2026-05-03 20:28 | 18.79120 | -64.43752 | 26580 ft | 386 kts | 118° |
| 2026-05-03 20:28 | 18.77834 | -64.41274 | 26156 ft | 384 kts | 117° |
| 2026-05-03 20:28 | 18.76552 | -64.38805 | 25739 ft | 383 kts | 117° |
| 2026-05-03 20:28 | 18.75273 | -64.36341 | 25295 ft | 382 kts | 117° |
| 2026-05-03 20:29 | 18.73996 | -64.33885 | 24873 ft | 381 kts | 117° |
| 2026-05-03 20:29 | 18.72739 | -64.31465 | 24433 ft | 381 kts | 117° |
| 2026-05-03 20:29 | 18.71465 | -64.29015 | 23992 ft | 381 kts | 117° |
| 2026-05-03 20:29 | 18.70188 | -64.26559 | 23518 ft | 382 kts | 117° |
| 2026-05-03 20:30 | 18.68913 | -64.24107 | 23009 ft | 381 kts | 117° |
| 2026-05-03 20:30 | 18.67644 | -64.21662 | 22532 ft | 380 kts | 118° |
| 2026-05-03 20:30 | 18.66378 | -64.19225 | 22068 ft | 378 kts | 118° |
| 2026-05-03 20:30 | 18.65115 | -64.16797 | 21609 ft | 377 kts | 118° |
| 2026-05-03 20:31 | 18.63854 | -64.14375 | 21160 ft | 376 kts | 118° |
| 2026-05-03 20:31 | 18.62596 | -64.11963 | 20705 ft | 375 kts | 119° |
| 2026-05-03 20:31 | 18.61339 | -64.09557 | 20261 ft | 374 kts | 119° |
| 2026-05-03 20:31 | 18.60083 | -64.07157 | 19813 ft | 374 kts | 119° |
| 2026-05-03 20:32 | 18.58827 | -64.04754 | 19342 ft | 374 kts | 119° |
| 2026-05-03 20:32 | 18.57573 | -64.02355 | 18888 ft | 374 kts | 120° |
| 2026-05-03 20:32 | 18.56319 | -63.99956 | 18424 ft | 374 kts | 120° |
| 2026-05-03 20:32 | 18.55065 | -63.97556 | 17911 ft | 373 kts | 120° |
| 2026-05-03 20:33 | 18.53814 | -63.95164 | 17438 ft | 372 kts | 120° |
| 2026-05-03 20:33 | 18.52569 | -63.92784 | 16972 ft | 370 kts | 120° |
| 2026-05-03 20:33 | 18.51331 | -63.90418 | 16511 ft | 367 kts | 120° |
| 2026-05-03 20:33 | 18.50102 | -63.88069 | 16059 ft | 365 kts | 120° |
| 2026-05-03 20:34 | 18.48878 | -63.85730 | 15608 ft | 363 kts | 119° |
| 2026-05-03 20:34 | 18.47661 | -63.83408 | 15160 ft | 361 kts | 119° |
| 2026-05-03 20:34 | 18.46452 | -63.81101 | 14718 ft | 359 kts | 119° |
| 2026-05-03 20:34 | 18.45251 | -63.78808 | 14273 ft | 356 kts | 119° |
| 2026-05-03 20:35 | 18.44073 | -63.76561 | 13833 ft | 354 kts | 119° |
| 2026-05-03 20:35 | 18.42886 | -63.74297 | 13327 ft | 352 kts | 119° |
| 2026-05-03 20:35 | 18.41709 | -63.72052 | 12861 ft | 349 kts | 119° |
| 2026-05-03 20:35 | 18.40541 | -63.69827 | 12414 ft | 345 kts | 119° |
| 2026-05-03 20:36 | 18.39382 | -63.67623 | 11960 ft | 342 kts | 120° |
| 2026-05-03 20:36 | 18.37971 | -63.65658 | 11756 ft | 329 kts | 135° |
| 2026-05-03 20:36 | 18.36355 | -63.64035 | 11451 ft | 320 kts | 137° |
| 2026-05-03 20:36 | 18.34732 | -63.62449 | 11040 ft | 316 kts | 137° |
| 2026-05-03 20:37 | 18.33128 | -63.60889 | 10615 ft | 312 kts | 137° |
| 2026-05-03 20:37 | 18.31542 | -63.59338 | 10201 ft | 309 kts | 137° |
| 2026-05-03 20:37 | 18.29984 | -63.57805 | 9958 ft | 300 kts | 137° |
| 2026-05-03 20:37 | 18.28482 | -63.56323 | 9423 ft | 300 kts | 136° |
| 2026-05-03 20:38 | 18.26967 | -63.54823 | 8946 ft | 298 kts | 136° |
| 2026-05-03 20:38 | 18.25467 | -63.53337 | 8520 ft | 295 kts | 136° |
| 2026-05-03 20:38 | 18.23986 | -63.51868 | 8122 ft | 291 kts | 136° |
| 2026-05-03 20:38 | 18.22522 | -63.50415 | 7725 ft | 287 kts | 135° |
| 2026-05-03 20:39 | 18.21097 | -63.48997 | 7344 ft | 284 kts | 135° |
| 2026-05-03 20:39 | 18.19667 | -63.47576 | 6954 ft | 281 kts | 135° |
| 2026-05-03 20:39 | 18.18252 | -63.46170 | 6573 ft | 278 kts | 135° |
| 2026-05-03 20:39 | 18.16853 | -63.44783 | 6178 ft | 275 kts | 135° |
| 2026-05-03 20:40 | 18.15465 | -63.43407 | 5792 ft | 272 kts | 135° |
| 2026-05-03 20:40 | 18.14097 | -63.42051 | 5427 ft | 269 kts | 135° |
| 2026-05-03 20:40 | 18.12748 | -63.40713 | 5078 ft | 265 kts | 135° |
| 2026-05-03 20:40 | 18.11414 | -63.39390 | 4722 ft | 262 kts | 135° |
| 2026-05-03 20:41 | 18.10096 | -63.38083 | 4354 ft | 259 kts | 135° |
| 2026-05-03 20:41 | 18.08797 | -63.36795 | 4090 ft | 253 kts | 135° |
| 2026-05-03 20:41 | 18.07549 | -63.35558 | 3974 ft | 241 kts | 135° |
| 2026-05-03 20:41 | 18.06353 | -63.34372 | 3857 ft | 231 kts | 136° |
| 2026-05-03 20:42 | 18.05208 | -63.33236 | 3750 ft | 221 kts | 135° |
| 2026-05-03 20:42 | 18.04111 | -63.32149 | 3654 ft | 212 kts | 135° |
| 2026-05-03 20:42 | 18.03077 | -63.31123 | 3552 ft | 203 kts | 135° |
| 2026-05-03 20:42 | 18.02084 | -63.30087 | 3329 ft | 201 kts | 126° |
| 2026-05-03 20:43 | 18.01621 | -63.28729 | 3107 ft | 199 kts | 98° |
| 2026-05-03 20:43 | 18.01691 | -63.27280 | 2878 ft | 199 kts | 84° |
| 2026-05-03 20:43 | 18.01907 | -63.25845 | 2633 ft | 198 kts | 82° |
| 2026-05-03 20:43 | 18.02129 | -63.24416 | 2390 ft | 198 kts | 83° |
| 2026-05-03 20:44 | 18.02346 | -63.22989 | 2140 ft | 197 kts | 83° |
| 2026-05-03 20:44 | 18.02553 | -63.21587 | 1874 ft | 190 kts | 82° |
| 2026-05-03 20:44 | 18.02749 | -63.20259 | 1617 ft | 179 kts | 81° |
| 2026-05-03 20:44 | 18.02932 | -63.19011 | 1382 ft | 167 kts | 82° |
| 2026-05-03 20:45 | 18.03099 | -63.17854 | 1166 ft | 153 kts | 82° |
| 2026-05-03 20:45 | 18.03251 | -63.16803 | 1003 ft | 139 kts | 82° |
| 2026-05-03 20:45 | 18.03397 | -63.15793 | 809 ft | 138 kts | 83° |
| 2026-05-03 20:45 | 18.03532 | -63.14835 | 563 ft | 128 kts | 82° |
| 2026-05-03 20:46 | 18.03662 | -63.13905 | 388 ft | 131 kts | 84° |
| 2026-05-03 20:46 | 18.03805 | -63.12957 | 241 ft | 130 kts | 84° |
| 2026-05-03 20:46 | 18.03935 | -63.12005 | 66 ft | 131 kts | 82° |
| 2026-05-03 20:46 | 18.04055 | -63.11158 | 27 ft | 91 kts | 81° |
| 2026-05-03 20:47 | 18.04119 | -63.10706 | 26 ft | 44 kts | 81° |
| 2026-05-03 20:47 | 18.04136 | -63.10574 | 27 ft | 9 kts | 92° |
| 2026-05-03 20:47 | 18.04128 | -63.10504 | 27 ft | 11 kts | 78° |
| 2026-05-03 20:47 | 18.04146 | -63.10494 | 27 ft | 3 kts | 315° |
| 2026-05-03 20:48 | 18.04144 | -63.10549 | 27 ft | 13 kts | 259° |
| 2026-05-03 20:48 | 18.04123 | -63.10679 | 26 ft | 23 kts | 262° |
| 2026-05-03 20:48 | 18.04094 | -63.10881 | 26 ft | 32 kts | 261° |
| 2026-05-03 20:48 | 18.04063 | -63.11106 | 27 ft | 20 kts | 272° |
| 2026-05-03 20:49 | 18.04146 | -63.11164 | 27 ft | 5 kts | 12° |
| 2026-05-03 20:49 | 18.04148 | -63.11164 | 27 ft | 0 kts | 12° |
| 2026-05-03 20:51 | 18.04150 | -63.11166 | 27 ft | 0 kts | 340° |
| 2026-05-03 20:51 | 18.04152 | -63.11172 | 27 ft | 2 kts | 286° |
| 2026-05-03 20:51 | 18.04145 | -63.11214 | 27 ft | 10 kts | 260° |
| 2026-05-03 20:51 | 18.04149 | -63.11299 | 27 ft | 11 kts | 314° |
| 2026-05-03 20:52 | 18.04224 | -63.11332 | 28 ft | 14 kts | 317° |
| 2026-05-03 20:52 | 18.04227 | -63.11442 | 28 ft | 17 kts | 259° |
| 2026-05-03 20:52 | 18.04192 | -63.11514 | 28 ft | 11 kts | 231° |
| 2026-05-03 20:52 | 18.04207 | -63.11565 | 28 ft | 5 kts | 321° |
| 2026-05-03 20:53 | 18.04224 | -63.11580 | 28 ft | 1 kts | 321° |
| 2026-05-03 20:53 | 18.04225 | -63.11581 | 28 ft | 0 kts | 321° |